sensor_id;sensor_type;location;lat;lon;timestamp;P1;durP1;ratioP1;P2;durP2;ratioP2
42092;SDS011;28974;50.316;18.960;2022-12-01T00:00:46;50.35;;;22.08;;
42092;SDS011;28974;50.316;18.960;2022-12-01T00:12:47;53.75;;;20.88;;
42092;SDS011;28974;50.316;18.960;2022-12-01T00:24:47;53.15;;;22.23;;
42092;SDS011;28974;50.316;18.960;2022-12-01T00:36:47;57.75;;;28.60;;
42092;SDS011;28974;50.316;18.960;2022-12-01T00:48:47;50.42;;;21.88;;
42092;SDS011;28974;50.316;18.960;2022-12-01T01:00:48;42.92;;;19.65;;
42092;SDS011;28974;50.316;18.960;2022-12-01T01:12:48;50.40;;;23.17;;
42092;SDS011;28974;50.316;18.960;2022-12-01T01:24:49;50.70;;;21.98;;
42092;SDS011;28974;50.316;18.960;2022-12-01T01:36:49;47.20;;;21.73;;
42092;SDS011;28974;50.316;18.960;2022-12-01T01:48:51;62.28;;;23.95;;
42092;SDS011;28974;50.316;18.960;2022-12-01T02:00:52;57.45;;;24.15;;
42092;SDS011;28974;50.316;18.960;2022-12-01T02:13:02;64.47;;;26.58;;
42092;SDS011;28974;50.316;18.960;2022-12-01T02:37:17;64.38;;;27.98;;
42092;SDS011;28974;50.316;18.960;2022-12-01T02:49:20;57.75;;;26.13;;
42092;SDS011;28974;50.316;18.960;2022-12-01T03:13:45;47.53;;;21.55;;
42092;SDS011;28974;50.316;18.960;2022-12-01T03:25:48;53.10;;;23.30;;
42092;SDS011;28974;50.316;18.960;2022-12-01T03:37:56;64.20;;;26.02;;
42092;SDS011;28974;50.316;18.960;2022-12-01T03:49:57;58.15;;;24.98;;
42092;SDS011;28974;50.316;18.960;2022-12-01T04:01:59;58.05;;;26.58;;
42092;SDS011;28974;50.316;18.960;2022-12-01T04:13:59;59.75;;;25.25;;
42092;SDS011;28974;50.316;18.960;2022-12-01T04:26:00;52.65;;;22.85;;
42092;SDS011;28974;50.316;18.960;2022-12-01T04:38:00;53.42;;;24.27;;
42092;SDS011;28974;50.316;18.960;2022-12-01T04:50:01;55.42;;;23.30;;
42092;SDS011;28974;50.316;18.960;2022-12-01T05:02:01;50.30;;;23.48;;
42092;SDS011;28974;50.316;18.960;2022-12-01T05:14:03;56.10;;;22.00;;
42092;SDS011;28974;50.316;18.960;2022-12-01T05:26:04;47.63;;;22.58;;
42092;SDS011;28974;50.316;18.960;2022-12-01T05:38:05;52.65;;;21.08;;
42092;SDS011;28974;50.316;18.960;2022-12-01T05:50:06;48.57;;;20.83;;
42092;SDS011;28974;50.316;18.960;2022-12-01T06:02:06;59.90;;;22.70;;
42092;SDS011;28974;50.316;18.960;2022-12-01T06:14:07;60.83;;;25.95;;
42092;SDS011;28974;50.316;18.960;2022-12-01T06:26:07;55.22;;;24.33;;
42092;SDS011;28974;50.316;18.960;2022-12-01T06:38:07;46.97;;;20.92;;
42092;SDS011;28974;50.316;18.960;2022-12-01T06:50:08;49.28;;;20.30;;
42092;SDS011;28974;50.316;18.960;2022-12-01T07:02:09;48.13;;;19.85;;
42092;SDS011;28974;50.316;18.960;2022-12-01T07:14:15;49.53;;;20.98;;
42092;SDS011;28974;50.316;18.960;2022-12-01T07:26:16;47.00;;;22.15;;
42092;SDS011;28974;50.316;18.960;2022-12-01T07:38:17;61.00;;;23.67;;
42092;SDS011;28974;50.316;18.960;2022-12-01T07:50:17;50.88;;;20.52;;
42092;SDS011;28974;50.316;18.960;2022-12-01T08:02:17;51.38;;;21.20;;
42092;SDS011;28974;50.316;18.960;2022-12-01T08:14:18;54.70;;;21.23;;
42092;SDS011;28974;50.316;18.960;2022-12-01T08:26:18;48.35;;;19.25;;
42092;SDS011;28974;50.316;18.960;2022-12-01T08:38:19;41.78;;;20.05;;
42092;SDS011;28974;50.316;18.960;2022-12-01T08:50:19;60.92;;;26.88;;
42092;SDS011;28974;50.316;18.960;2022-12-01T09:02:19;58.47;;;26.00;;
42092;SDS011;28974;50.316;18.960;2022-12-01T09:14:23;72.80;;;28.52;;
42092;SDS011;28974;50.316;18.960;2022-12-01T09:26:23;54.45;;;23.02;;
42092;SDS011;28974;50.316;18.960;2022-12-01T09:38:24;46.88;;;21.95;;
42092;SDS011;28974;50.316;18.960;2022-12-01T09:50:25;59.63;;;24.88;;
42092;SDS011;28974;50.316;18.960;2022-12-01T10:02:29;54.25;;;20.30;;
42092;SDS011;28974;50.316;18.960;2022-12-01T10:14:31;43.17;;;17.70;;
42092;SDS011;28974;50.316;18.960;2022-12-01T10:38:49;57.80;;;23.43;;
42092;SDS011;28974;50.316;18.960;2022-12-01T10:50:53;50.58;;;19.25;;
42092;SDS011;28974;50.316;18.960;2022-12-01T11:02:54;46.47;;;20.13;;
42092;SDS011;28974;50.316;18.960;2022-12-01T11:14:54;46.00;;;20.23;;
42092;SDS011;28974;50.316;18.960;2022-12-01T11:26:56;50.97;;;22.10;;
42092;SDS011;28974;50.316;18.960;2022-12-01T11:38:58;30.70;;;14.95;;
42092;SDS011;28974;50.316;18.960;2022-12-01T11:51:23;29.55;;;14.10;;
42092;SDS011;28974;50.316;18.960;2022-12-01T12:03:34;32.83;;;16.85;;
42092;SDS011;28974;50.316;18.960;2022-12-01T12:15:42;41.25;;;16.88;;
42092;SDS011;28974;50.316;18.960;2022-12-01T12:28:17;37.05;;;17.17;;
42092;SDS011;28974;50.316;18.960;2022-12-01T12:40:29;42.35;;;18.02;;
42092;SDS011;28974;50.316;18.960;2022-12-01T12:52:32;40.95;;;19.00;;
42092;SDS011;28974;50.316;18.960;2022-12-01T13:04:39;40.55;;;18.55;;
42092;SDS011;28974;50.316;18.960;2022-12-01T13:16:43;40.88;;;19.48;;
42092;SDS011;28974;50.316;18.960;2022-12-01T13:28:51;43.75;;;19.70;;
42092;SDS011;28974;50.316;18.960;2022-12-01T13:53:34;39.85;;;19.70;;
42092;SDS011;28974;50.316;18.960;2022-12-01T14:17:41;36.23;;;17.07;;
42092;SDS011;28974;50.316;18.960;2022-12-01T14:29:43;33.75;;;16.38;;
42092;SDS011;28974;50.316;18.960;2022-12-01T14:41:45;34.80;;;14.75;;
42092;SDS011;28974;50.316;18.960;2022-12-01T14:53:46;36.08;;;17.55;;
42092;SDS011;28974;50.316;18.960;2022-12-01T15:05:47;34.83;;;17.00;;
42092;SDS011;28974;50.316;18.960;2022-12-01T15:17:48;45.13;;;21.40;;
42092;SDS011;28974;50.316;18.960;2022-12-01T15:29:49;41.83;;;19.38;;
42092;SDS011;28974;50.316;18.960;2022-12-01T15:41:49;38.72;;;17.65;;
42092;SDS011;28974;50.316;18.960;2022-12-01T15:53:54;38.72;;;17.90;;
42092;SDS011;28974;50.316;18.960;2022-12-01T16:05:56;46.25;;;17.30;;
42092;SDS011;28974;50.316;18.960;2022-12-01T16:17:57;42.10;;;17.92;;
42092;SDS011;28974;50.316;18.960;2022-12-01T16:30:03;48.83;;;21.42;;
42092;SDS011;28974;50.316;18.960;2022-12-01T16:42:03;41.95;;;17.98;;
42092;SDS011;28974;50.316;18.960;2022-12-01T16:54:03;32.45;;;14.88;;
42092;SDS011;28974;50.316;18.960;2022-12-01T17:06:05;32.63;;;14.88;;
42092;SDS011;28974;50.316;18.960;2022-12-01T17:18:06;36.17;;;15.32;;
42092;SDS011;28974;50.316;18.960;2022-12-01T17:30:06;35.97;;;16.38;;
42092;SDS011;28974;50.316;18.960;2022-12-01T17:42:07;38.17;;;18.40;;
42092;SDS011;28974;50.316;18.960;2022-12-01T17:54:07;39.70;;;17.77;;
42092;SDS011;28974;50.316;18.960;2022-12-01T18:06:07;37.25;;;17.33;;
42092;SDS011;28974;50.316;18.960;2022-12-01T18:18:08;40.58;;;20.58;;
42092;SDS011;28974;50.316;18.960;2022-12-01T18:30:08;46.97;;;18.95;;
42092;SDS011;28974;50.316;18.960;2022-12-01T18:42:08;41.25;;;17.67;;
42092;SDS011;28974;50.316;18.960;2022-12-01T18:54:10;46.60;;;21.30;;
42092;SDS011;28974;50.316;18.960;2022-12-01T19:06:11;51.30;;;21.70;;
42092;SDS011;28974;50.316;18.960;2022-12-01T19:18:12;42.55;;;20.40;;
42092;SDS011;28974;50.316;18.960;2022-12-01T19:30:12;49.85;;;21.40;;
42092;SDS011;28974;50.316;18.960;2022-12-01T19:42:13;48.38;;;20.30;;
42092;SDS011;28974;50.316;18.960;2022-12-01T19:54:19;52.25;;;20.95;;
42092;SDS011;28974;50.316;18.960;2022-12-01T20:06:21;48.78;;;20.15;;
42092;SDS011;28974;50.316;18.960;2022-12-01T20:18:23;50.10;;;21.10;;
42092;SDS011;28974;50.316;18.960;2022-12-01T20:30:23;55.75;;;22.77;;
42092;SDS011;28974;50.316;18.960;2022-12-01T20:42:23;57.80;;;23.63;;
42092;SDS011;28974;50.316;18.960;2022-12-01T20:54:24;53.80;;;22.73;;
42092;SDS011;28974;50.316;18.960;2022-12-01T21:06:24;58.10;;;24.33;;
42092;SDS011;28974;50.316;18.960;2022-12-01T21:18:26;52.60;;;22.42;;
42092;SDS011;28974;50.316;18.960;2022-12-01T21:30:28;50.72;;;19.73;;
42092;SDS011;28974;50.316;18.960;2022-12-01T21:42:29;48.10;;;21.55;;
42092;SDS011;28974;50.316;18.960;2022-12-01T21:54:30;57.92;;;21.45;;
42092;SDS011;28974;50.316;18.960;2022-12-01T22:06:37;58.67;;;24.35;;
42092;SDS011;28974;50.316;18.960;2022-12-01T22:18:38;62.40;;;25.75;;
42092;SDS011;28974;50.316;18.960;2022-12-01T22:30:40;60.58;;;24.63;;
42092;SDS011;28974;50.316;18.960;2022-12-01T22:42:40;73.25;;;27.35;;
42092;SDS011;28974;50.316;18.960;2022-12-01T22:54:44;61.35;;;22.73;;
42092;SDS011;28974;50.316;18.960;2022-12-01T23:18:46;57.03;;;23.83;;
42092;SDS011;28974;50.316;18.960;2022-12-01T23:30:47;63.35;;;27.65;;
42092;SDS011;28974;50.316;18.960;2022-12-01T23:42:48;54.28;;;23.48;;
42092;SDS011;28974;50.316;18.960;2022-12-01T23:54:48;52.00;;;24.08;;
